sensor_id;sensor_type;location;lat;lon;timestamp;pressure;altitude;pressure_sealevel;temperature;humidity
57232;BME280;43488;46.934;8.276;2023-05-22T00:01:29;96239.66;;;15.72;100.00
57232;BME280;43488;46.934;8.276;2023-05-22T00:03:58;96242.31;;;15.72;100.00
57232;BME280;43488;46.934;8.276;2023-05-22T00:06:26;96235.91;;;15.68;100.00
57232;BME280;43488;46.934;8.276;2023-05-22T00:08:53;96240.97;;;15.70;100.00
57232;BME280;43488;46.934;8.276;2023-05-22T00:11:21;96243.81;;;15.63;100.00
57232;BME280;43488;46.934;8.276;2023-05-22T00:13:48;96250.06;;;15.57;100.00
57232;BME280;43488;46.934;8.276;2023-05-22T00:16:16;96252.66;;;15.52;100.00
57232;BME280;43488;46.934;8.276;2023-05-22T00:18:43;96252.34;;;15.48;100.00
57232;BME280;43488;46.934;8.276;2023-05-22T00:21:11;96244.38;;;15.48;100.00
57232;BME280;43488;46.934;8.276;2023-05-22T00:23:38;96248.09;;;15.47;100.00
57232;BME280;43488;46.934;8.276;2023-05-22T00:26:06;96256.84;;;15.48;100.00
57232;BME280;43488;46.934;8.276;2023-05-22T00:28:34;96253.63;;;15.46;100.00
57232;BME280;43488;46.934;8.276;2023-05-22T00:31:02;96254.09;;;15.43;100.00
57232;BME280;43488;46.934;8.276;2023-05-22T00:33:29;96248.16;;;15.35;100.00
57232;BME280;43488;46.934;8.276;2023-05-22T00:35:58;96256.13;;;15.35;100.00
57232;BME280;43488;46.934;8.276;2023-05-22T00:38:34;96253.47;;;15.35;100.00
57232;BME280;43488;46.934;8.276;2023-05-22T00:41:05;96247.16;;;15.36;100.00
57232;BME280;43488;46.934;8.276;2023-05-22T00:43:33;96248.34;;;15.29;100.00
57232;BME280;43488;46.934;8.276;2023-05-22T00:46:00;96249.97;;;15.30;100.00
57232;BME280;43488;46.934;8.276;2023-05-22T00:48:28;96251.00;;;15.29;100.00
57232;BME280;43488;46.934;8.276;2023-05-22T00:50:56;96250.41;;;15.27;100.00
57232;BME280;43488;46.934;8.276;2023-05-22T00:53:27;96257.56;;;15.26;100.00
57232;BME280;43488;46.934;8.276;2023-05-22T00:55:57;96256.47;;;15.22;100.00
57232;BME280;43488;46.934;8.276;2023-05-22T00:58:27;96252.88;;;15.12;100.00
57232;BME280;43488;46.934;8.276;2023-05-22T01:00:54;96260.00;;;15.11;100.00
57232;BME280;43488;46.934;8.276;2023-05-22T01:03:23;96257.81;;;15.08;100.00
57232;BME280;43488;46.934;8.276;2023-05-22T01:05:52;96260.81;;;15.12;100.00
57232;BME280;43488;46.934;8.276;2023-05-22T01:08:21;96257.59;;;15.10;100.00
57232;BME280;43488;46.934;8.276;2023-05-22T01:11:07;96260.81;;;15.12;100.00
57232;BME280;43488;46.934;8.276;2023-05-22T01:14:10;96258.97;;;15.12;100.00
57232;BME280;43488;46.934;8.276;2023-05-22T01:20:27;96259.47;;;15.09;100.00
57232;BME280;43488;46.934;8.276;2023-05-22T01:29:50;96266.03;;;15.06;100.00
57232;BME280;43488;46.934;8.276;2023-05-22T01:32:23;96271.09;;;15.08;100.00
57232;BME280;43488;46.934;8.276;2023-05-22T01:34:55;96262.31;;;15.07;100.00
57232;BME280;43488;46.934;8.276;2023-05-22T01:37:25;96259.69;;;15.07;100.00
57232;BME280;43488;46.934;8.276;2023-05-22T01:39:53;96263.63;;;15.05;100.00
57232;BME280;43488;46.934;8.276;2023-05-22T01:42:22;96255.09;;;15.03;100.00
57232;BME280;43488;46.934;8.276;2023-05-22T01:44:50;96260.41;;;15.03;100.00
57232;BME280;43488;46.934;8.276;2023-05-22T01:47:17;96258.47;;;14.98;100.00
57232;BME280;43488;46.934;8.276;2023-05-22T01:49:45;96267.22;;;14.99;100.00
57232;BME280;43488;46.934;8.276;2023-05-22T01:52:54;96257.03;;;14.91;100.00
57232;BME280;43488;46.934;8.276;2023-05-22T01:59:22;96267.66;;;14.91;100.00
57232;BME280;43488;46.934;8.276;2023-05-22T02:01:52;96265.22;;;14.89;100.00
57232;BME280;43488;46.934;8.276;2023-05-22T02:04:21;96264.91;;;14.86;100.00
57232;BME280;43488;46.934;8.276;2023-05-22T02:06:51;96269.09;;;14.82;100.00
57232;BME280;43488;46.934;8.276;2023-05-22T02:09:20;96269.53;;;14.78;100.00
57232;BME280;43488;46.934;8.276;2023-05-22T02:11:50;96281.19;;;14.77;100.00
57232;BME280;43488;46.934;8.276;2023-05-22T02:14:18;96281.69;;;14.74;100.00
57232;BME280;43488;46.934;8.276;2023-05-22T02:16:46;96285.13;;;14.75;100.00
57232;BME280;43488;46.934;8.276;2023-05-22T02:19:14;96276.13;;;14.76;100.00
57232;BME280;43488;46.934;8.276;2023-05-22T02:21:41;96279.47;;;14.71;100.00
57232;BME280;43488;46.934;8.276;2023-05-22T02:24:09;96276.75;;;14.66;100.00
57232;BME280;43488;46.934;8.276;2023-05-22T02:26:37;96278.84;;;14.64;100.00
57232;BME280;43488;46.934;8.276;2023-05-22T02:29:06;96283.56;;;14.62;100.00
57232;BME280;43488;46.934;8.276;2023-05-22T02:31:33;96270.81;;;14.59;100.00
57232;BME280;43488;46.934;8.276;2023-05-22T02:34:01;96257.00;;;14.57;100.00
57232;BME280;43488;46.934;8.276;2023-05-22T02:36:31;96263.34;;;14.56;100.00
57232;BME280;43488;46.934;8.276;2023-05-22T02:38:58;96265.09;;;14.50;100.00
57232;BME280;43488;46.934;8.276;2023-05-22T02:41:26;96257.06;;;14.45;100.00
57232;BME280;43488;46.934;8.276;2023-05-22T02:43:53;96265.19;;;14.44;100.00
57232;BME280;43488;46.934;8.276;2023-05-22T02:46:20;96262.78;;;14.42;100.00
57232;BME280;43488;46.934;8.276;2023-05-22T02:48:48;96258.66;;;14.35;100.00
57232;BME280;43488;46.934;8.276;2023-05-22T02:51:15;96253.97;;;14.25;100.00
57232;BME280;43488;46.934;8.276;2023-05-22T02:53:42;96252.06;;;14.20;100.00
57232;BME280;43488;46.934;8.276;2023-05-22T02:56:09;96257.34;;;14.20;100.00
57232;BME280;43488;46.934;8.276;2023-05-22T02:58:38;96255.03;;;14.24;100.00
57232;BME280;43488;46.934;8.276;2023-05-22T03:01:05;96251.81;;;14.22;100.00
57232;BME280;43488;46.934;8.276;2023-05-22T03:03:32;96255.75;;;14.19;100.00
57232;BME280;43488;46.934;8.276;2023-05-22T03:06:01;96250.78;;;14.23;100.00
57232;BME280;43488;46.934;8.276;2023-05-22T03:08:30;96249.91;;;14.17;100.00
57232;BME280;43488;46.934;8.276;2023-05-22T03:10:59;96249.31;;;14.15;100.00
57232;BME280;43488;46.934;8.276;2023-05-22T03:13:28;96256.69;;;14.13;100.00
57232;BME280;43488;46.934;8.276;2023-05-22T03:15:56;96251.88;;;14.10;100.00
57232;BME280;43488;46.934;8.276;2023-05-22T03:18:24;96241.16;;;14.05;100.00
57232;BME280;43488;46.934;8.276;2023-05-22T03:20:52;96252.00;;;14.04;100.00
57232;BME280;43488;46.934;8.276;2023-05-22T03:23:20;96260.50;;;14.06;100.00
57232;BME280;43488;46.934;8.276;2023-05-22T03:25:48;96250.16;;;14.04;100.00
57232;BME280;43488;46.934;8.276;2023-05-22T03:28:15;96257.66;;;13.95;100.00
57232;BME280;43488;46.934;8.276;2023-05-22T03:30:43;96252.59;;;13.94;100.00
57232;BME280;43488;46.934;8.276;2023-05-22T03:33:10;96252.47;;;13.89;100.00
57232;BME280;43488;46.934;8.276;2023-05-22T03:35:37;96254.13;;;13.90;100.00
57232;BME280;43488;46.934;8.276;2023-05-22T03:38:05;96256.41;;;13.86;100.00
57232;BME280;43488;46.934;8.276;2023-05-22T03:40:32;96254.00;;;13.85;100.00
57232;BME280;43488;46.934;8.276;2023-05-22T03:43:00;96255.59;;;13.86;100.00
57232;BME280;43488;46.934;8.276;2023-05-22T03:45:27;96249.84;;;13.89;100.00
57232;BME280;43488;46.934;8.276;2023-05-22T03:47:55;96251.84;;;13.82;100.00
57232;BME280;43488;46.934;8.276;2023-05-22T03:50:22;96257.34;;;13.80;100.00
57232;BME280;43488;46.934;8.276;2023-05-22T03:52:49;96254.59;;;13.75;100.00
57232;BME280;43488;46.934;8.276;2023-05-22T03:55:17;96260.56;;;13.71;100.00
57232;BME280;43488;46.934;8.276;2023-05-22T03:57:44;96252.88;;;13.69;100.00
57232;BME280;43488;46.934;8.276;2023-05-22T04:00:12;96253.69;;;13.70;100.00
57232;BME280;43488;46.934;8.276;2023-05-22T04:02:40;96258.97;;;13.70;100.00
57232;BME280;43488;46.934;8.276;2023-05-22T04:05:11;96259.19;;;13.68;100.00
57232;BME280;43488;46.934;8.276;2023-05-22T04:07:38;96259.44;;;13.66;100.00
57232;BME280;43488;46.934;8.276;2023-05-22T04:10:06;96256.22;;;13.64;100.00
57232;BME280;43488;46.934;8.276;2023-05-22T04:12:36;96261.50;;;13.53;100.00
57232;BME280;43488;46.934;8.276;2023-05-22T04:15:03;96259.09;;;13.51;100.00
57232;BME280;43488;46.934;8.276;2023-05-22T04:17:31;96261.97;;;13.50;100.00
57232;BME280;43488;46.934;8.276;2023-05-22T04:20:00;96264.16;;;13.53;100.00
57232;BME280;43488;46.934;8.276;2023-05-22T04:22:27;96261.75;;;13.51;100.00
57232;BME280;43488;46.934;8.276;2023-05-22T04:24:57;96262.78;;;13.50;100.00
57232;BME280;43488;46.934;8.276;2023-05-22T04:27:24;96270.28;;;13.53;100.00
57232;BME280;43488;46.934;8.276;2023-05-22T04:29:53;96273.38;;;13.50;100.00
57232;BME280;43488;46.934;8.276;2023-05-22T04:32:20;96273.38;;;13.50;100.00
57232;BME280;43488;46.934;8.276;2023-05-22T04:34:49;96270.97;;;13.49;100.00
57232;BME280;43488;46.934;8.276;2023-05-22T04:37:17;96269.34;;;13.48;100.00
57232;BME280;43488;46.934;8.276;2023-05-22T04:39:46;96281.66;;;13.42;100.00
57232;BME280;43488;46.934;8.276;2023-05-22T04:42:13;96282.91;;;13.40;100.00
57232;BME280;43488;46.934;8.276;2023-05-22T04:44:42;96280.03;;;13.41;100.00
57232;BME280;43488;46.934;8.276;2023-05-22T04:47:09;96291.66;;;13.40;100.00
57232;BME280;43488;46.934;8.276;2023-05-22T04:49:40;96295.22;;;13.46;100.00
57232;BME280;43488;46.934;8.276;2023-05-22T04:52:11;96297.72;;;13.52;100.00
57232;BME280;43488;46.934;8.276;2023-05-22T04:54:38;96296.34;;;13.61;100.00
57232;BME280;43488;46.934;8.276;2023-05-22T04:57:07;96294.06;;;13.65;100.00
57232;BME280;43488;46.934;8.276;2023-05-22T04:59:35;96297.03;;;13.69;100.00
57232;BME280;43488;46.934;8.276;2023-05-22T05:02:04;96291.06;;;13.73;100.00
57232;BME280;43488;46.934;8.276;2023-05-22T05:04:32;96287.94;;;13.76;100.00
57232;BME280;43488;46.934;8.276;2023-05-22T05:07:00;96289.56;;;13.77;100.00
57232;BME280;43488;46.934;8.276;2023-05-22T05:09:29;96290.94;;;13.80;100.00
57232;BME280;43488;46.934;8.276;2023-05-22T05:11:58;96291.59;;;13.87;100.00
57232;BME280;43488;46.934;8.276;2023-05-22T05:14:27;96286.44;;;13.92;100.00
57232;BME280;43488;46.934;8.276;2023-05-22T05:17:02;96286.28;;;13.99;100.00
57232;BME280;43488;46.934;8.276;2023-05-22T05:19:30;96288.56;;;14.07;100.00
57232;BME280;43488;46.934;8.276;2023-05-22T05:21:58;96283.94;;;14.14;100.00
57232;BME280;43488;46.934;8.276;2023-05-22T05:24:25;96281.75;;;14.22;100.00
57232;BME280;43488;46.934;8.276;2023-05-22T05:26:52;96282.41;;;14.30;100.00
57232;BME280;43488;46.934;8.276;2023-05-22T05:29:20;96284.69;;;14.38;100.00
57232;BME280;43488;46.934;8.276;2023-05-22T05:31:47;96295.13;;;14.44;100.00
57232;BME280;43488;46.934;8.276;2023-05-22T05:34:15;96288.13;;;14.38;100.00
57232;BME280;43488;46.934;8.276;2023-05-22T05:36:42;96282.59;;;14.40;100.00
57232;BME280;43488;46.934;8.276;2023-05-22T05:39:09;96276.81;;;14.43;100.00
57232;BME280;43488;46.934;8.276;2023-05-22T05:41:38;96288.59;;;14.47;100.00
57232;BME280;43488;46.934;8.276;2023-05-22T05:44:05;96284.97;;;14.53;100.00
57232;BME280;43488;46.934;8.276;2023-05-22T05:46:32;96286.94;;;14.58;100.00
57232;BME280;43488;46.934;8.276;2023-05-22T05:49:08;96297.59;;;14.63;100.00
57232;BME280;43488;46.934;8.276;2023-05-22T05:51:39;96291.94;;;14.71;100.00
57232;BME280;43488;46.934;8.276;2023-05-22T05:54:06;96283.59;;;14.79;100.00
57232;BME280;43488;46.934;8.276;2023-05-22T05:56:33;96282.41;;;14.87;100.00
57232;BME280;43488;46.934;8.276;2023-05-22T05:59:00;96290.53;;;14.97;100.00
57232;BME280;43488;46.934;8.276;2023-05-22T06:01:28;96291.97;;;15.04;100.00
57232;BME280;43488;46.934;8.276;2023-05-22T06:03:59;96291.03;;;15.11;100.00
57232;BME280;43488;46.934;8.276;2023-05-22T06:06:32;96289.00;;;15.18;100.00
57232;BME280;43488;46.934;8.276;2023-05-22T06:09:08;96279.38;;;15.28;100.00
57232;BME280;43488;46.934;8.276;2023-05-22T06:11:42;96286.94;;;15.36;100.00
57232;BME280;43488;46.934;8.276;2023-05-22T06:14:09;96292.84;;;15.44;100.00
57232;BME280;43488;46.934;8.276;2023-05-22T06:16:36;96289.47;;;15.48;100.00
57232;BME280;43488;46.934;8.276;2023-05-22T06:19:04;96294.63;;;15.55;100.00
57232;BME280;43488;46.934;8.276;2023-05-22T06:21:33;96288.91;;;15.63;100.00
57232;BME280;43488;46.934;8.276;2023-05-22T06:24:00;96293.81;;;15.71;100.00
57232;BME280;43488;46.934;8.276;2023-05-22T06:26:27;96281.66;;;15.75;100.00
57232;BME280;43488;46.934;8.276;2023-05-22T06:28:54;96293.72;;;15.83;100.00
57232;BME280;43488;46.934;8.276;2023-05-22T06:31:22;96292.16;;;15.87;100.00
57232;BME280;43488;46.934;8.276;2023-05-22T06:33:50;96287.66;;;15.87;100.00
57232;BME280;43488;46.934;8.276;2023-05-22T06:36:17;96292.00;;;15.93;100.00
57232;BME280;43488;46.934;8.276;2023-05-22T06:38:45;96288.78;;;15.91;100.00
57232;BME280;43488;46.934;8.276;2023-05-22T06:41:15;96287.72;;;15.92;100.00
57232;BME280;43488;46.934;8.276;2023-05-22T06:43:42;96283.69;;;15.90;100.00
57232;BME280;43488;46.934;8.276;2023-05-22T06:46:10;96283.53;;;15.97;100.00
57232;BME280;43488;46.934;8.276;2023-05-22T06:48:38;96284.31;;;15.97;100.00
57232;BME280;43488;46.934;8.276;2023-05-22T06:51:05;96279.91;;;16.03;100.00
57232;BME280;43488;46.934;8.276;2023-05-22T06:53:34;96284.03;;;16.15;100.00
57232;BME280;43488;46.934;8.276;2023-05-22T06:56:02;96284.81;;;16.16;100.00
57232;BME280;43488;46.934;8.276;2023-05-22T06:58:29;96289.16;;;16.22;100.00
57232;BME280;43488;46.934;8.276;2023-05-22T07:00:57;96278.34;;;16.29;100.00
57232;BME280;43488;46.934;8.276;2023-05-22T07:03:25;96282.91;;;16.33;98.51
57232;BME280;43488;46.934;8.276;2023-05-22T07:05:54;96289.38;;;16.42;98.91
57232;BME280;43488;46.934;8.276;2023-05-22T07:08:24;96282.53;;;16.46;97.67
57232;BME280;43488;46.934;8.276;2023-05-22T07:10:53;96279.66;;;16.53;97.29
57232;BME280;43488;46.934;8.276;2023-05-22T07:13:20;96277.91;;;16.64;100.00
57232;BME280;43488;46.934;8.276;2023-05-22T07:15:49;96278.00;;;16.69;100.00
57232;BME280;43488;46.934;8.276;2023-05-22T07:18:18;96286.59;;;16.81;100.00
57232;BME280;43488;46.934;8.276;2023-05-22T07:20:47;96278.16;;;16.89;100.00
57232;BME280;43488;46.934;8.276;2023-05-22T07:23:14;96286.41;;;16.88;98.81
57232;BME280;43488;46.934;8.276;2023-05-22T07:25:42;96288.31;;;16.92;98.02
57232;BME280;43488;46.934;8.276;2023-05-22T07:28:09;96280.88;;;16.94;96.04
57232;BME280;43488;46.934;8.276;2023-05-22T07:30:37;96284.69;;;17.03;97.86
57232;BME280;43488;46.934;8.276;2023-05-22T07:33:05;96287.97;;;17.16;97.98
57232;BME280;43488;46.934;8.276;2023-05-22T07:35:33;96282.13;;;17.14;98.60
57232;BME280;43488;46.934;8.276;2023-05-22T07:38:00;96278.44;;;17.20;99.48
57232;BME280;43488;46.934;8.276;2023-05-22T07:40:28;96276.34;;;17.27;96.59
57232;BME280;43488;46.934;8.276;2023-05-22T07:42:55;96285.44;;;17.31;100.00
57232;BME280;43488;46.934;8.276;2023-05-22T07:45:22;96277.53;;;17.41;100.00
57232;BME280;43488;46.934;8.276;2023-05-22T07:47:50;96273.84;;;17.47;100.00
57232;BME280;43488;46.934;8.276;2023-05-22T07:50:18;96279.78;;;17.59;100.00
57232;BME280;43488;46.934;8.276;2023-05-22T07:52:45;96270.78;;;17.66;97.00
57232;BME280;43488;46.934;8.276;2023-05-22T07:55:12;96276.19;;;17.76;97.82
57232;BME280;43488;46.934;8.276;2023-05-22T07:57:41;96271.41;;;17.83;97.52
57232;BME280;43488;46.934;8.276;2023-05-22T08:00:10;96266.66;;;17.90;95.44
57232;BME280;43488;46.934;8.276;2023-05-22T08:02:40;96262.44;;;17.99;98.04
57232;BME280;43488;46.934;8.276;2023-05-22T08:05:08;96267.78;;;18.04;94.63
57232;BME280;43488;46.934;8.276;2023-05-22T08:07:37;96270.50;;;18.14;91.59
57232;BME280;43488;46.934;8.276;2023-05-22T08:10:14;96267.84;;;18.19;89.32
57232;BME280;43488;46.934;8.276;2023-05-22T08:12:42;96259.09;;;18.29;92.32
57232;BME280;43488;46.934;8.276;2023-05-22T08:15:10;96255.41;;;18.40;88.71
57232;BME280;43488;46.934;8.276;2023-05-22T08:17:37;96263.69;;;18.49;87.30
57232;BME280;43488;46.934;8.276;2023-05-22T08:20:05;96257.84;;;18.62;86.13
57232;BME280;43488;46.934;8.276;2023-05-22T08:22:33;96256.53;;;18.65;85.84
57232;BME280;43488;46.934;8.276;2023-05-22T08:25:00;96261.09;;;18.74;84.86
57232;BME280;43488;46.934;8.276;2023-05-22T08:27:28;96255.22;;;18.83;83.65
57232;BME280;43488;46.934;8.276;2023-05-22T08:29:56;96259.78;;;18.87;80.69
57232;BME280;43488;46.934;8.276;2023-05-22T08:32:24;96247.78;;;19.00;83.22
57232;BME280;43488;46.934;8.276;2023-05-22T08:34:51;96248.84;;;19.04;85.36
57232;BME280;43488;46.934;8.276;2023-05-22T08:37:19;96247.75;;;19.10;82.52
57232;BME280;43488;46.934;8.276;2023-05-22T08:39:47;96238.72;;;19.11;80.17
57232;BME280;43488;46.934;8.276;2023-05-22T08:42:16;96247.50;;;19.22;82.05
57232;BME280;43488;46.934;8.276;2023-05-22T08:44:43;96240.03;;;19.34;84.80
57232;BME280;43488;46.934;8.276;2023-05-22T08:47:10;96244.03;;;19.42;85.95
57232;BME280;43488;46.934;8.276;2023-05-22T08:49:40;96241.84;;;19.54;86.37
57232;BME280;43488;46.934;8.276;2023-05-22T08:52:46;96236.78;;;19.63;84.14
57232;BME280;43488;46.934;8.276;2023-05-22T08:55:18;96237.56;;;19.73;85.01
57232;BME280;43488;46.934;8.276;2023-05-22T08:57:46;96239.94;;;19.80;82.63
57232;BME280;43488;46.934;8.276;2023-05-22T09:00:18;96234.28;;;19.92;84.08
57232;BME280;43488;46.934;8.276;2023-05-22T09:02:46;96233.72;;;20.00;83.23
57232;BME280;43488;46.934;8.276;2023-05-22T09:05:15;96228.38;;;20.00;81.46
57232;BME280;43488;46.934;8.276;2023-05-22T09:07:43;96228.34;;;20.10;83.51
57232;BME280;43488;46.934;8.276;2023-05-22T09:10:15;96227.47;;;20.25;80.89
57232;BME280;43488;46.934;8.276;2023-05-22T09:13:06;96227.47;;;20.25;80.27
57232;BME280;43488;46.934;8.276;2023-05-22T09:15:36;96231.97;;;20.34;81.22
57232;BME280;43488;46.934;8.276;2023-05-22T09:18:05;96227.91;;;20.47;82.17
57232;BME280;43488;46.934;8.276;2023-05-22T09:20:38;96229.78;;;20.52;79.62
57232;BME280;43488;46.934;8.276;2023-05-22T09:23:13;96226.25;;;20.56;77.65
57232;BME280;43488;46.934;8.276;2023-05-22T09:25:44;96226.94;;;20.72;78.30
57232;BME280;43488;46.934;8.276;2023-05-22T09:28:12;96222.66;;;20.76;78.06
57232;BME280;43488;46.934;8.276;2023-05-22T09:30:39;96223.41;;;20.82;78.83
57232;BME280;43488;46.934;8.276;2023-05-22T09:33:11;96233.00;;;20.88;75.42
57232;BME280;43488;46.934;8.276;2023-05-22T09:35:41;96225.97;;;20.97;71.96
57232;BME280;43488;46.934;8.276;2023-05-22T09:38:10;96226.97;;;21.06;75.03
57232;BME280;43488;46.934;8.276;2023-05-22T09:40:40;96232.53;;;21.15;74.18
57232;BME280;43488;46.934;8.276;2023-05-22T09:43:11;96227.06;;;21.25;76.35
57232;BME280;43488;46.934;8.276;2023-05-22T09:45:43;96228.03;;;21.39;73.64
57232;BME280;43488;46.934;8.276;2023-05-22T09:48:10;96229.00;;;21.48;73.80
57232;BME280;43488;46.934;8.276;2023-05-22T09:50:38;96231.31;;;21.60;73.44
57232;BME280;43488;46.934;8.276;2023-05-22T09:53:07;96231.53;;;21.64;75.66
57232;BME280;43488;46.934;8.276;2023-05-22T09:55:36;96224.72;;;21.76;75.89
57232;BME280;43488;46.934;8.276;2023-05-22T09:58:06;96217.91;;;21.84;74.65
57232;BME280;43488;46.934;8.276;2023-05-22T10:00:35;96221.34;;;21.90;73.38
57232;BME280;43488;46.934;8.276;2023-05-22T10:03:08;96221.44;;;22.03;75.26
57232;BME280;43488;46.934;8.276;2023-05-22T10:05:49;96225.63;;;22.14;75.77
57232;BME280;43488;46.934;8.276;2023-05-22T10:08:22;96219.19;;;22.16;72.12
57232;BME280;43488;46.934;8.276;2023-05-22T10:10:51;96219.19;;;22.16;72.19
57232;BME280;43488;46.934;8.276;2023-05-22T10:13:21;96213.25;;;22.19;72.79
57232;BME280;43488;46.934;8.276;2023-05-22T10:15:50;96218.47;;;22.29;70.99
57232;BME280;43488;46.934;8.276;2023-05-22T10:18:18;96215.38;;;22.40;72.84
57232;BME280;43488;46.934;8.276;2023-05-22T10:20:47;96216.69;;;22.43;70.97
57232;BME280;43488;46.934;8.276;2023-05-22T10:23:15;96210.56;;;22.56;72.35
57232;BME280;43488;46.934;8.276;2023-05-22T10:25:44;96218.31;;;22.77;71.28
57232;BME280;43488;46.934;8.276;2023-05-22T10:28:21;96213.13;;;22.85;68.51
57232;BME280;43488;46.934;8.276;2023-05-22T10:31:01;96216.16;;;22.79;68.46
57232;BME280;43488;46.934;8.276;2023-05-22T10:33:37;96218.22;;;22.87;69.32
57232;BME280;43488;46.934;8.276;2023-05-22T10:36:11;96208.91;;;22.79;67.97
57232;BME280;43488;46.934;8.276;2023-05-22T10:41:23;96200.72;;;22.89;70.76
57232;BME280;43488;46.934;8.276;2023-05-22T10:43:55;96197.75;;;22.91;68.82
57232;BME280;43488;46.934;8.276;2023-05-22T10:46:23;96195.69;;;22.83;68.89
57232;BME280;43488;46.934;8.276;2023-05-22T10:48:53;96204.19;;;22.71;67.41
57232;BME280;43488;46.934;8.276;2023-05-22T10:51:21;96202.09;;;22.87;67.09
57232;BME280;43488;46.934;8.276;2023-05-22T10:54:00;96189.50;;;23.01;70.85
57232;BME280;43488;46.934;8.276;2023-05-22T10:56:35;96186.22;;;22.90;66.39
57232;BME280;43488;46.934;8.276;2023-05-22T10:59:04;96186.50;;;22.89;67.91
57232;BME280;43488;46.934;8.276;2023-05-22T11:01:33;96180.19;;;22.98;68.92
57232;BME280;43488;46.934;8.276;2023-05-22T11:09:20;96174.72;;;23.50;68.06
57232;BME280;43488;46.934;8.276;2023-05-22T11:15:04;96174.41;;;23.93;68.53
57232;BME280;43488;46.934;8.276;2023-05-22T11:17:42;96171.72;;;24.06;66.45
57232;BME280;43488;46.934;8.276;2023-05-22T11:20:24;96162.75;;;24.11;65.83
57232;BME280;43488;46.934;8.276;2023-05-22T11:23:03;96162.66;;;24.16;65.32
57232;BME280;43488;46.934;8.276;2023-05-22T11:25:36;96166.66;;;24.05;64.24
57232;BME280;43488;46.934;8.276;2023-05-22T11:28:05;96162.06;;;23.92;63.95
57232;BME280;43488;46.934;8.276;2023-05-22T11:30:40;96160.09;;;23.83;64.90
57232;BME280;43488;46.934;8.276;2023-05-22T11:33:08;96153.41;;;23.67;62.60
57232;BME280;43488;46.934;8.276;2023-05-22T11:35:39;96153.78;;;23.47;63.98
57232;BME280;43488;46.934;8.276;2023-05-22T11:38:08;96158.19;;;23.43;64.45
57232;BME280;43488;46.934;8.276;2023-05-22T11:40:35;96154.06;;;23.32;63.15
57232;BME280;43488;46.934;8.276;2023-05-22T11:43:04;96157.09;;;23.44;64.22
57232;BME280;43488;46.934;8.276;2023-05-22T11:45:36;96151.94;;;23.75;66.36
57232;BME280;43488;46.934;8.276;2023-05-22T11:48:03;96153.78;;;24.02;64.96
57232;BME280;43488;46.934;8.276;2023-05-22T11:50:31;96143.38;;;24.23;64.03
57232;BME280;43488;46.934;8.276;2023-05-22T11:52:58;96148.66;;;24.42;63.87
57232;BME280;43488;46.934;8.276;2023-05-22T11:55:26;96150.69;;;24.58;63.57
57232;BME280;43488;46.934;8.276;2023-05-22T11:57:54;96143.19;;;24.69;60.67
57232;BME280;43488;46.934;8.276;2023-05-22T12:00:23;96137.47;;;24.48;61.17
57232;BME280;43488;46.934;8.276;2023-05-22T12:02:51;96135.31;;;24.23;59.50
57232;BME280;43488;46.934;8.276;2023-05-22T12:05:21;96140.50;;;24.19;59.32
57232;BME280;43488;46.934;8.276;2023-05-22T12:07:48;96142.63;;;24.08;61.10
57232;BME280;43488;46.934;8.276;2023-05-22T12:10:18;96134.88;;;24.07;60.21
57232;BME280;43488;46.934;8.276;2023-05-22T12:12:45;96145.72;;;24.02;61.08
57232;BME280;43488;46.934;8.276;2023-05-22T12:15:16;96136.38;;;23.99;60.84
57232;BME280;43488;46.934;8.276;2023-05-22T12:17:44;96132.59;;;24.00;60.88
57232;BME280;43488;46.934;8.276;2023-05-22T12:20:12;96133.59;;;23.91;60.61
57232;BME280;43488;46.934;8.276;2023-05-22T12:22:42;96133.13;;;23.89;60.70
57232;BME280;43488;46.934;8.276;2023-05-22T12:25:15;96126.28;;;24.19;59.99
57232;BME280;43488;46.934;8.276;2023-05-22T12:27:44;96124.81;;;24.49;60.94
57232;BME280;43488;46.934;8.276;2023-05-22T12:30:14;96122.06;;;24.62;58.49
57232;BME280;43488;46.934;8.276;2023-05-22T12:32:47;96121.34;;;24.71;57.17
57232;BME280;43488;46.934;8.276;2023-05-22T12:35:23;96130.69;;;24.73;57.22
57232;BME280;43488;46.934;8.276;2023-05-22T12:37:53;96132.09;;;24.71;56.66
57232;BME280;43488;46.934;8.276;2023-05-22T12:40:23;96137.03;;;24.77;56.70
57232;BME280;43488;46.934;8.276;2023-05-22T12:42:51;96134.75;;;24.93;53.80
57232;BME280;43488;46.934;8.276;2023-05-22T12:45:18;96133.78;;;25.11;55.65
57232;BME280;43488;46.934;8.276;2023-05-22T12:47:47;96127.53;;;25.24;58.18
57232;BME280;43488;46.934;8.276;2023-05-22T12:50:14;96132.97;;;25.33;56.22
57232;BME280;43488;46.934;8.276;2023-05-22T12:52:42;96127.78;;;25.45;55.57
57232;BME280;43488;46.934;8.276;2023-05-22T12:55:10;96123.53;;;25.22;53.82
57232;BME280;43488;46.934;8.276;2023-05-22T12:57:38;96127.34;;;25.52;54.47
57232;BME280;43488;46.934;8.276;2023-05-22T13:00:08;96126.09;;;25.67;54.68
57232;BME280;43488;46.934;8.276;2023-05-22T13:02:36;96120.47;;;25.86;53.61
57232;BME280;43488;46.934;8.276;2023-05-22T13:05:04;96124.44;;;26.05;51.28
57232;BME280;43488;46.934;8.276;2023-05-22T13:07:31;96126.06;;;26.06;50.23
57232;BME280;43488;46.934;8.276;2023-05-22T13:10:01;96119.25;;;26.18;51.35
57232;BME280;43488;46.934;8.276;2023-05-22T13:12:30;96117.84;;;26.38;52.37
57232;BME280;43488;46.934;8.276;2023-05-22T13:15:01;96116.59;;;26.44;49.17
57232;BME280;43488;46.934;8.276;2023-05-22T13:17:29;96104.34;;;26.55;49.74
57232;BME280;43488;46.934;8.276;2023-05-22T13:19:57;96106.09;;;26.42;46.79
57232;BME280;43488;46.934;8.276;2023-05-22T13:22:25;96110.41;;;26.52;48.63
57232;BME280;43488;46.934;8.276;2023-05-22T13:24:53;96103.06;;;26.35;47.96
57232;BME280;43488;46.934;8.276;2023-05-22T13:27:21;96108.50;;;26.44;48.30
57232;BME280;43488;46.934;8.276;2023-05-22T13:29:48;96108.78;;;26.33;47.96
57232;BME280;43488;46.934;8.276;2023-05-22T13:32:18;96100.69;;;26.42;46.79